Time;durP1;ratioP1;P1;durP2;ratioP2;P2;SDS_P1;SDS_P2;PMS_P1;PMS_P2;Temp;Humidity;BMP_temperature;BMP_pressure;BME280_temperature;BME280_humidity;BME280_pressure;Samples;Min_cycle;Max_cycle;Signal;HPM_P1;HPM_P2
2022/08/14 00:00:43;;;;;;;7.43;5.80;;;19.80;99.90;;;;;;5015712;28;20266;-67
2022/08/14 00:03:24;;;;;;;8.60;6.22;;;19.70;99.90;;;;;;5016154;28;20189;-67
2022/08/14 00:05:51;;;;;;;7.40;5.80;;;19.60;99.90;;;;;;4998099;28;20380;-67
2022/08/14 00:08:18;;;;;;;7.72;5.28;;;19.50;99.90;;;;;;4997739;28;20254;-66
2022/08/14 00:10:44;;;;;;;8.48;6.32;;;19.50;99.90;;;;;;5015614;28;20192;-67
2022/08/14 00:13:11;;;;;;;6.13;5.50;;;19.50;99.90;;;;;;5015193;28;20204;-66
2022/08/14 00:15:40;;;;;;;7.57;5.78;;;19.40;99.90;;;;;;5030866;28;20263;-66
2022/08/14 00:18:09;;;;;;;7.00;5.85;;;19.40;99.90;;;;;;5015183;28;20653;-66
2022/08/14 00:20:37;;;;;;;7.38;5.68;;;19.40;99.90;;;;;;5016124;28;20196;-67
2022/08/14 00:23:05;;;;;;;8.45;5.85;;;19.40;99.90;;;;;;5015263;28;20274;-66
2022/08/14 00:25:31;;;;;;;6.40;5.47;;;19.30;99.90;;;;;;5015072;28;20727;-66
2022/08/14 00:27:57;;;;;;;8.27;5.80;;;19.30;99.90;;;;;;5014816;28;20203;-66
2022/08/14 00:30:23;;;;;;;7.82;5.60;;;19.30;99.90;;;;;;4997434;28;20265;-66
2022/08/14 00:32:49;;;;;;;7.00;6.30;;;19.30;99.90;;;;;;5014089;28;20206;-66
2022/08/14 00:35:15;;;;;;;9.27;6.13;;;19.10;99.90;;;;;;5014685;28;20175;-66
2022/08/14 00:37:43;;;;;;;8.20;5.85;;;19.00;99.90;;;;;;5014898;28;20190;-66
2022/08/14 00:40:12;;;;;;;7.25;5.88;;;18.90;99.90;;;;;;4997050;28;20290;-66
2022/08/14 00:42:39;;;;;;;7.03;6.03;;;18.90;99.90;;;;;;5029925;28;20176;-66
2022/08/14 00:45:07;;;;;;;6.55;5.53;;;18.90;99.90;;;;;;5015184;28;20199;-66
2022/08/14 00:47:34;;;;;;;6.03;5.43;;;18.90;99.90;;;;;;5015348;28;20549;-66
2022/08/14 00:50:01;;;;;;;7.85;5.90;;;18.90;99.90;;;;;;4996905;28;20192;-66
2022/08/14 00:52:27;;;;;;;9.52;6.15;;;18.90;99.90;;;;;;4996523;28;20183;-66
2022/08/14 00:54:53;;;;;;;8.32;6.25;;;18.90;99.90;;;;;;5014411;28;20199;-66
2022/08/14 00:57:21;;;;;;;10.48;6.70;;;18.90;99.90;;;;;;5014065;28;20183;-66
2022/08/14 00:59:47;;;;;;;8.23;6.57;;;19.00;99.90;;;;;;5014615;28;20214;-66
2022/08/14 01:02:18;;;;;;;7.97;6.63;;;18.90;99.90;;;;;;5014473;28;20180;-66
2022/08/14 01:04:45;;;;;;;11.10;7.15;;;18.90;99.90;;;;;;4996566;28;20183;-66
2022/08/14 01:07:19;;;;;;;9.25;7.32;;;18.90;99.90;;;;;;5013993;28;20613;-66
2022/08/14 01:09:50;;;;;;;11.10;6.30;;;18.80;99.90;;;;;;5014382;28;20199;-66
2022/08/14 01:12:17;;;;;;;7.63;6.47;;;18.70;99.90;;;;;;5013789;28;20243;-66
2022/08/14 01:14:43;;;;;;;7.70;6.40;;;18.70;99.90;;;;;;4996579;28;20207;-66
2022/08/14 01:17:10;;;;;;;7.72;6.72;;;18.60;99.90;;;;;;5014292;28;20176;-66
2022/08/14 01:22:19;;;;;;;8.27;6.90;;;18.70;99.90;;;;;;5014456;28;20174;-66
2022/08/14 01:24:46;;;;;;;9.77;6.80;;;18.70;99.90;;;;;;5014189;28;20180;-67
2022/08/14 01:27:20;;;;;;;8.43;7.00;;;18.80;99.90;;;;;;4996000;28;20183;-66
2022/08/14 01:29:50;;;;;;;7.45;5.85;;;18.80;99.90;;;;;;5029076;28;20210;-66
2022/08/14 01:32:20;;;;;;;10.13;6.55;;;18.80;99.90;;;;;;5013926;28;20525;-66
2022/08/14 01:34:53;;;;;;;7.75;6.57;;;18.80;99.90;;;;;;5013698;28;20208;-66
2022/08/14 01:37:23;;;;;;;7.85;7.05;;;18.80;99.90;;;;;;5013850;28;20180;-67
2022/08/14 01:39:50;;;;;;;10.88;6.25;;;18.80;99.90;;;;;;5013704;28;20570;-66
2022/08/14 01:42:18;;;;;;;9.23;7.18;;;18.80;99.90;;;;;;5013646;28;20176;-66
2022/08/14 01:44:51;;;;;;;9.02;7.03;;;18.80;99.90;;;;;;4998295;28;20188;-66
2022/08/14 01:47:17;;;;;;;10.35;7.25;;;18.80;99.90;;;;;;5017970;28;20164;-66
2022/08/14 01:49:43;;;;;;;9.23;6.90;;;18.70;99.90;;;;;;5017662;28;20196;-66
2022/08/14 01:52:11;;;;;;;9.30;7.72;;;18.70;99.90;;;;;;5017673;28;20176;-66
2022/08/14 01:54:37;;;;;;;9.25;6.93;;;18.60;99.90;;;;;;5017451;28;20196;-67
2022/08/14 01:57:05;;;;;;;7.30;6.53;;;18.60;99.90;;;;;;5017369;28;20197;-66
2022/08/14 01:59:33;;;;;;;8.63;7.20;;;18.50;99.90;;;;;;4999648;28;20203;-66
2022/08/14 02:02:06;;;;;;;8.93;7.10;;;18.40;99.90;;;;;;5017897;28;20187;-66
2022/08/14 02:04:33;;;;;;;8.43;7.00;;;18.40;99.90;;;;;;5017662;28;20159;-66
2022/08/14 02:07:01;;;;;;;7.78;6.70;;;18.40;99.90;;;;;;5017448;28;20183;-66
2022/08/14 02:09:29;;;;;;;9.93;6.50;;;18.40;99.90;;;;;;4999668;28;20200;-66
2022/08/14 02:11:55;;;;;;;8.77;7.30;;;18.40;99.90;;;;;;5016947;28;20171;-66
2022/08/14 02:14:22;;;;;;;13.23;7.95;;;18.30;99.90;;;;;;4999532;28;20560;-66
2022/08/14 02:16:52;;;;;;;9.55;7.60;;;18.30;99.90;;;;;;5017084;28;20199;-66
2022/08/14 02:19:22;;;;;;;9.50;7.22;;;18.20;99.90;;;;;;5017031;28;20226;-66
2022/08/14 02:21:50;;;;;;;9.10;7.43;;;18.30;99.90;;;;;;4999402;28;20649;-66
2022/08/14 02:24:19;;;;;;;12.43;7.47;;;18.30;99.90;;;;;;5017295;28;20255;-66
2022/08/14 02:26:48;;;;;;;9.35;7.22;;;18.30;99.90;;;;;;4999388;28;20188;-66
2022/08/14 02:29:18;;;;;;;10.98;8.35;;;18.30;99.90;;;;;;5016619;28;20192;-66
2022/08/14 02:31:48;;;;;;;8.65;7.32;;;18.20;99.90;;;;;;5017073;28;20176;-66
2022/08/14 02:34:22;;;;;;;11.20;8.23;;;18.10;99.90;;;;;;5017145;28;20191;-66
2022/08/14 02:36:51;;;;;;;11.00;8.70;;;18.10;99.90;;;;;;5016911;28;20179;-66
2022/08/14 02:39:18;;;;;;;10.32;8.20;;;18.00;99.90;;;;;;5016925;28;20665;-66
2022/08/14 02:41:50;;;;;;;10.38;8.48;;;18.00;99.90;;;;;;5017105;28;20598;-66
2022/08/14 02:44:17;;;;;;;9.52;8.23;;;17.90;99.90;;;;;;4998991;28;20262;-66
2022/08/14 02:46:43;;;;;;;14.70;8.60;;;17.90;99.90;;;;;;5017003;28;20593;-66
2022/08/14 02:49:10;;;;;;;9.13;8.00;;;17.90;99.90;;;;;;5016769;28;20227;-66
2022/08/14 02:51:36;;;;;;;11.77;8.05;;;17.90;99.90;;;;;;5016611;28;20255;-66
2022/08/14 02:54:06;;;;;;;10.13;7.32;;;17.90;99.90;;;;;;5031651;28;20672;-66
2022/08/14 02:56:32;;;;;;;9.75;7.40;;;17.80;99.90;;;;;;5015581;28;20743;-66
2022/08/14 02:59:00;;;;;;;10.23;7.78;;;17.70;99.90;;;;;;5016336;28;20608;-66
2022/08/14 03:01:27;;;;;;;14.48;8.88;;;17.70;99.90;;;;;;5016477;28;20222;-66
2022/08/14 03:03:56;;;;;;;10.05;7.90;;;17.70;99.90;;;;;;5016696;28;20623;-66
2022/08/14 03:06:25;;;;;;;10.55;8.10;;;17.60;99.90;;;;;;5016220;28;20172;-66
2022/08/14 03:08:54;;;;;;;11.13;8.32;;;17.60;99.90;;;;;;5016333;28;20196;-66
2022/08/14 03:11:20;;;;;;;10.10;7.85;;;17.50;99.90;;;;;;5016133;28;20637;-66
2022/08/14 03:13:50;;;;;;;8.35;7.45;;;17.50;99.90;;;;;;5016393;28;20549;-66
2022/08/14 03:16:18;;;;;;;8.88;7.80;;;17.60;99.90;;;;;;5016112;28;20168;-66
2022/08/14 03:18:46;;;;;;;10.55;8.02;;;17.60;99.90;;;;;;5016190;28;20192;-66
2022/08/14 03:21:15;;;;;;;12.13;8.25;;;17.70;99.90;;;;;;5016719;28;20171;-66
2022/08/14 03:23:43;;;;;;;10.20;8.02;;;17.70;99.90;;;;;;5016120;28;20181;-66
2022/08/14 03:26:11;;;;;;;9.48;8.02;;;17.70;99.90;;;;;;4998561;28;20186;-66
2022/08/14 03:28:41;;;;;;;10.57;8.00;;;17.70;99.90;;;;;;5015887;28;20664;-66
2022/08/14 03:31:08;;;;;;;10.10;8.30;;;17.70;99.90;;;;;;5016206;28;20172;-66
2022/08/14 03:33:36;;;;;;;9.73;8.73;;;17.70;99.90;;;;;;5031571;28;20286;-66
2022/08/14 03:36:04;;;;;;;15.15;8.55;;;17.70;99.90;;;;;;5016685;28;20176;-66
2022/08/14 03:38:29;;;;;;;9.82;7.95;;;17.70;99.90;;;;;;4998717;28;20599;-66
2022/08/14 03:40:55;;;;;;;10.88;9.05;;;17.70;99.90;;;;;;5017025;28;20206;-66
2022/08/14 03:43:21;;;;;;;9.90;8.60;;;17.70;99.90;;;;;;5016657;28;20187;-66
2022/08/14 03:45:47;;;;;;;11.10;8.40;;;17.70;99.90;;;;;;4998411;28;20230;-66
2022/08/14 03:48:20;;;;;;;10.77;8.82;;;17.70;99.90;;;;;;5016012;28;20548;-66
2022/08/14 03:50:50;;;;;;;12.13;10.05;;;17.60;99.90;;;;;;5015706;28;20200;-66
2022/08/14 03:53:18;;;;;;;11.63;9.88;;;17.50;99.90;;;;;;5015997;28;20649;-66
2022/08/14 03:55:45;;;;;;;12.68;8.52;;;17.40;99.90;;;;;;5015381;28;20278;-66
2022/08/14 03:58:12;;;;;;;11.00;9.02;;;17.30;99.90;;;;;;5015646;28;20230;-66
2022/08/14 04:00:39;;;;;;;12.57;8.77;;;17.30;99.90;;;;;;5015560;28;20188;-66
2022/08/14 04:03:08;;;;;;;11.27;9.25;;;17.30;99.90;;;;;;5030789;28;20311;-66
2022/08/14 04:05:36;;;;;;;11.02;9.30;;;17.30;99.90;;;;;;5015537;28;20211;-66
2022/08/14 04:08:02;;;;;;;11.30;8.55;;;17.20;99.90;;;;;;5015532;28;20746;-66
2022/08/14 04:10:28;;;;;;;10.23;8.32;;;17.20;99.90;;;;;;5016247;28;20200;-66
2022/08/14 04:12:59;;;;;;;10.50;8.93;;;17.20;99.90;;;;;;5015725;28;20353;-66
2022/08/14 04:15:26;;;;;;;9.80;8.40;;;17.20;99.90;;;;;;4998354;28;20176;-66
2022/08/14 04:17:55;;;;;;;13.40;9.07;;;17.20;99.90;;;;;;4997817;28;20188;-66
2022/08/14 04:20:21;;;;;;;10.65;9.48;;;17.10;99.90;;;;;;5015418;28;20188;-66
2022/08/14 04:22:49;;;;;;;11.32;9.00;;;17.10;99.90;;;;;;5015759;28;20169;-66
2022/08/14 04:25:15;;;;;;;12.48;9.48;;;17.10;99.90;;;;;;4997408;28;20203;-66
2022/08/14 04:27:41;;;;;;;11.25;8.77;;;17.10;99.90;;;;;;5015081;28;20180;-66
2022/08/14 04:30:07;;;;;;;11.05;8.50;;;17.10;99.90;;;;;;5015534;28;20187;-66
2022/08/14 04:32:33;;;;;;;14.75;9.73;;;17.10;99.90;;;;;;5014996;28;20247;-66
2022/08/14 04:35:00;;;;;;;10.95;9.52;;;17.10;99.90;;;;;;5015064;28;20271;-66
2022/08/14 04:45:40;;;;;;;11.68;9.70;;;17.10;99.90;;;;;;5014887;28;20548;-66
2022/08/14 04:48:12;;;;;;;12.23;9.23;;;17.10;99.90;;;;;;4997056;28;20183;-66
2022/08/14 04:50:39;;;;;;;11.25;9.45;;;17.10;99.90;;;;;;5014633;28;20274;-66
2022/08/14 04:53:05;;;;;;;11.27;9.63;;;17.10;99.90;;;;;;5014668;28;20730;-66
2022/08/14 04:55:32;;;;;;;11.82;9.68;;;17.00;99.90;;;;;;5014551;28;20192;-66
2022/08/14 04:57:58;;;;;;;11.38;10.23;;;17.00;99.90;;;;;;5014701;28;20156;-66
2022/08/14 05:00:26;;;;;;;11.18;9.52;;;17.10;99.90;;;;;;4996808;28;20262;-66
2022/08/14 05:02:52;;;;;;;10.38;9.27;;;17.10;99.90;;;;;;5014462;28;20616;-66
2022/08/14 05:05:19;;;;;;;11.05;9.85;;;17.20;99.90;;;;;;4997312;28;20219;-66
2022/08/14 05:07:45;;;;;;;11.23;8.82;;;17.20;99.90;;;;;;5014400;28;20179;-66
2022/08/14 05:10:11;;;;;;;14.25;9.88;;;17.30;99.90;;;;;;4996562;28;20199;-67
2022/08/14 05:12:38;;;;;;;12.93;11.05;;;17.40;99.90;;;;;;5014008;28;20614;-66
2022/08/14 05:15:06;;;;;;;12.77;10.20;;;17.40;99.90;;;;;;5014577;28;20163;-66
2022/08/14 05:17:32;;;;;;;11.65;10.18;;;17.50;99.90;;;;;;5014291;28;20657;-66
2022/08/14 05:20:01;;;;;;;10.85;9.20;;;17.60;99.90;;;;;;5013704;28;20199;-66
2022/08/14 05:22:27;;;;;;;11.60;9.95;;;17.70;99.90;;;;;;5014364;28;20168;-67
2022/08/14 05:24:53;;;;;;;12.13;9.90;;;17.80;99.90;;;;;;5014262;28;20186;-66
2022/08/14 05:27:19;;;;;;;12.93;9.40;;;17.80;99.90;;;;;;5014199;28;20172;-67
2022/08/14 05:29:46;;;;;;;10.75;9.50;;;17.90;99.90;;;;;;4996493;28;20226;-67
2022/08/14 05:32:13;;;;;;;11.65;10.30;;;17.90;99.90;;;;;;5014481;28;20182;-67
2022/08/14 05:34:39;;;;;;;12.73;10.07;;;18.00;99.90;;;;;;4996505;28;20795;-67
2022/08/14 05:37:05;;;;;;;14.00;9.95;;;18.10;99.90;;;;;;5014454;28;20188;-67
2022/08/14 05:39:30;;;;;;;12.27;10.32;;;18.20;99.90;;;;;;4996581;28;20195;-67
2022/08/14 05:41:56;;;;;;;13.63;10.73;;;18.20;99.90;;;;;;5014177;28;20172;-67
2022/08/14 05:44:22;;;;;;;13.18;10.98;;;18.20;99.90;;;;;;5014783;28;20203;-66
2022/08/14 05:46:48;;;;;;;12.65;11.20;;;18.30;99.90;;;;;;5014149;28;20172;-67
2022/08/14 05:49:14;;;;;;;13.20;11.73;;;18.40;99.90;;;;;;5014017;28;20556;-66
2022/08/14 05:51:40;;;;;;;14.25;11.75;;;18.40;99.90;;;;;;5014175;28;20664;-66
2022/08/14 05:54:07;;;;;;;17.52;12.25;;;18.50;99.90;;;;;;5014283;28;20218;-67
2022/08/14 05:56:33;;;;;;;14.85;10.80;;;18.50;99.90;;;;;;5013627;28;20199;-67
2022/08/14 05:58:58;;;;;;;13.23;11.02;;;18.60;99.90;;;;;;5013878;28;20657;-66
2022/08/14 06:01:24;;;;;;;15.13;11.95;;;18.70;99.90;;;;;;4996484;28;20262;-66
2022/08/14 06:03:50;;;;;;;12.30;10.88;;;18.80;99.90;;;;;;5013953;28;20176;-67
2022/08/14 06:06:17;;;;;;;13.18;10.82;;;18.80;99.90;;;;;;4996208;28;20319;-66
2022/08/14 06:08:43;;;;;;;15.90;10.73;;;18.90;99.90;;;;;;5014132;28;20164;-66
2022/08/14 06:11:09;;;;;;;13.98;10.27;;;19.00;99.90;;;;;;5013889;28;20248;-66
2022/08/14 06:13:38;;;;;;;12.55;11.23;;;19.10;99.90;;;;;;5013798;28;20208;-67
2022/08/14 06:16:04;;;;;;;13.88;10.55;;;19.20;99.90;;;;;;5013875;28;20247;-67
2022/08/14 06:18:30;;;;;;;10.98;9.80;;;19.40;99.90;;;;;;5013787;28;20171;-66
2022/08/14 06:20:56;;;;;;;11.23;9.57;;;19.50;99.90;;;;;;4996172;28;20546;-66
2022/08/14 06:23:21;;;;;;;12.02;10.60;;;19.60;99.90;;;;;;4996190;28;20641;-67
2022/08/14 06:25:48;;;;;;;11.20;9.98;;;19.70;99.90;;;;;;5014083;28;20179;-70
2022/08/14 06:28:18;;;;;;;11.90;10.18;;;19.80;99.90;;;;;;4995829;28;20601;-66
2022/08/14 06:30:44;;;;;;;11.13;9.35;;;19.90;99.90;;;;;;5014066;28;20191;-67
2022/08/14 06:33:09;;;;;;;10.18;9.13;;;20.00;99.90;;;;;;5017279;28;20206;-67
2022/08/14 06:35:35;;;;;;;11.38;10.10;;;20.20;99.90;;;;;;5032585;28;20172;-66
2022/08/14 06:38:01;;;;;;;11.75;10.25;;;20.30;99.90;;;;;;5017049;28;20271;-67
2022/08/14 06:40:30;;;;;;;12.50;11.18;;;20.40;99.90;;;;;;4999596;28;20614;-67
2022/08/14 06:42:59;;;;;;;10.90;9.73;;;20.50;99.90;;;;;;5016804;28;20172;-67
2022/08/14 06:45:25;;;;;;;11.27;9.55;;;20.60;99.90;;;;;;5017017;28;20164;-67
2022/08/14 06:47:50;;;;;;;11.27;10.07;;;20.70;99.90;;;;;;5016786;28;20184;-67
2022/08/14 06:50:20;;;;;;;11.32;10.07;;;20.80;99.90;;;;;;5016550;28;20192;-67
2022/08/14 06:52:47;;;;;;;11.73;10.45;;;20.90;99.90;;;;;;5016645;28;20242;-66
2022/08/14 06:55:15;;;;;;;13.95;10.48;;;21.00;99.90;;;;;;4999291;28;20524;-71
2022/08/14 06:57:45;;;;;;;11.48;10.27;;;21.10;99.90;;;;;;5017351;28;20648;-71
2022/08/14 07:00:21;;;;;;;10.98;9.63;;;21.20;99.90;;;;;;5016577;28;20204;-71
2022/08/14 07:05:47;;;;;;;13.00;10.13;;;21.40;99.90;;;;;;5016632;28;20190;-66
2022/08/14 07:08:25;;;;;;;12.45;10.68;;;21.50;99.90;;;;;;5016491;28;20180;-66
2022/08/14 07:10:57;;;;;;;14.15;9.75;;;21.60;99.90;;;;;;5016964;28;20584;-66
2022/08/14 07:13:24;;;;;;;13.50;9.90;;;21.60;99.90;;;;;;5015990;28;20184;-66
2022/08/14 07:15:52;;;;;;;10.25;9.25;;;21.80;99.90;;;;;;4998642;28;20270;-66
2022/08/14 07:18:23;;;;;;;10.40;9.30;;;21.80;99.90;;;;;;5016656;28;20502;-66
2022/08/14 07:20:49;;;;;;;11.38;10.18;;;21.90;99.90;;;;;;5031551;28;20246;-66
2022/08/14 07:23:15;;;;;;;10.73;9.63;;;22.00;99.90;;;;;;4998644;28;20187;-66
2022/08/14 07:25:43;;;;;;;13.10;10.38;;;22.10;99.90;;;;;;5016033;28;20612;-66
2022/08/14 07:28:27;;;;;;;10.65;9.45;;;22.20;99.90;;;;;;5015471;28;20222;-66
2022/08/14 07:30:56;;;;;;;11.60;9.70;;;22.20;99.90;;;;;;5016227;28;20267;-66
2022/08/14 07:33:23;;;;;;;11.13;9.93;;;22.30;99.90;;;;;;4998371;28;20664;-66
2022/08/14 07:35:49;;;;;;;10.95;9.60;;;22.40;99.90;;;;;;5030877;28;20226;-65
2022/08/14 07:38:20;;;;;;;9.95;8.95;;;22.50;99.90;;;;;;5016021;28;20183;-65
2022/08/14 07:40:47;;;;;;;10.10;8.90;;;22.60;99.90;;;;;;5015665;28;20187;-65
2022/08/14 07:43:13;;;;;;;10.30;8.88;;;22.70;99.90;;;;;;5014834;28;20671;-66
2022/08/14 07:45:40;;;;;;;10.68;8.70;;;22.70;99.90;;;;;;4998084;28;20212;-67
2022/08/14 07:48:06;;;;;;;11.18;10.02;;;22.80;99.90;;;;;;5015301;28;20631;-66
2022/08/14 07:50:32;;;;;;;11.57;9.80;;;22.90;99.90;;;;;;5015587;28;20598;-67
2022/08/14 07:52:58;;;;;;;10.75;8.75;;;23.00;99.90;;;;;;5015113;28;20187;-67
2022/08/14 07:55:24;;;;;;;10.00;8.98;;;23.10;99.90;;;;;;4997486;28;20172;-67
2022/08/14 07:57:50;;;;;;;12.32;8.80;;;23.20;99.90;;;;;;5015415;28;20172;-67
2022/08/14 08:00:21;;;;;;;10.57;9.32;;;23.30;99.90;;;;;;4997206;28;20203;-67
2022/08/14 08:02:50;;;;;;;10.20;8.98;;;23.40;99.90;;;;;;5015592;28;20172;-67
2022/08/14 08:05:16;;;;;;;10.38;9.27;;;23.50;99.90;;;;;;4997375;28;20176;-67
2022/08/14 08:07:45;;;;;;;10.93;9.82;;;23.50;99.90;;;;;;5015163;28;20190;-67
2022/08/14 08:10:30;;;;;;;10.40;9.23;;;23.60;99.90;;;;;;5015370;28;20274;-67
2022/08/14 08:13:11;;;;;;;12.65;8.82;;;23.60;99.90;;;;;;5015133;28;20624;-67
2022/08/14 08:16:07;;;;;;;10.93;9.68;;;23.70;99.90;;;;;;5014962;28;20239;-67
2022/08/14 08:18:34;;;;;;;10.02;9.02;;;23.80;99.90;;;;;;5011407;28;20188;-67
2022/08/14 08:21:00;;;;;;;11.48;10.15;;;23.90;99.90;;;;;;5015057;28;20262;-67
2022/08/14 08:23:28;;;;;;;10.52;9.25;;;24.00;99.90;;;;;;5014895;28;20552;-67
2022/08/14 08:25:57;;;;;;;10.93;9.77;;;24.10;99.90;;;;;;5014652;28;20176;-67
2022/08/14 08:28:26;;;;;;;10.65;9.52;;;24.20;99.90;;;;;;5014452;28;20696;-67
2022/08/14 08:31:00;;;;;;;9.95;8.88;;;24.40;99.90;;;;;;5014472;28;20290;-67
2022/08/14 08:33:31;;;;;;;10.50;9.40;;;24.50;99.90;;;;;;5014727;28;20200;-67
2022/08/14 08:36:04;;;;;;;10.07;8.98;;;24.50;99.90;;;;;;5014706;28;20160;-67
2022/08/14 08:38:31;;;;;;;12.60;9.32;;;24.60;99.90;;;;;;5029579;28;20602;-67
2022/08/14 08:40:58;;;;;;;9.88;8.88;;;24.80;99.90;;;;;;5014402;28;20178;-67
2022/08/14 08:43:31;;;;;;;10.35;9.25;;;24.80;99.90;;;;;;5014266;28;20183;-67
2022/08/14 08:46:02;;;;;;;10.02;9.02;;;24.90;99.90;;;;;;5014313;28;20251;-67
2022/08/14 08:48:47;;;;;;;10.98;9.35;;;25.00;99.90;;;;;;5014746;28;20251;-67
2022/08/14 08:51:26;;;;;;;10.90;9.07;;;25.10;99.90;;;;;;5015059;28;20168;-67
2022/08/14 08:54:00;;;;;;;11.10;8.82;;;25.20;99.90;;;;;;5013865;28;20676;-67
2022/08/14 08:56:36;;;;;;;10.90;8.77;;;25.30;99.90;;;;;;5014189;28;20187;-67
2022/08/14 08:59:02;;;;;;;9.82;8.57;;;25.40;99.90;;;;;;5014048;28;20579;-67
2022/08/14 09:01:29;;;;;;;9.18;8.20;;;25.50;99.90;;;;;;5014526;28;20203;-66
2022/08/14 09:04:03;;;;;;;9.38;8.23;;;25.70;99.90;;;;;;5015001;28;20161;-67
2022/08/14 09:06:28;;;;;;;9.45;8.00;;;25.80;99.90;;;;;;5014767;28;20180;-66
2022/08/14 09:08:54;;;;;;;9.45;7.70;;;26.00;99.90;;;;;;5014319;28;20192;-67
2022/08/14 09:11:23;;;;;;;10.55;8.32;;;26.20;99.90;;;;;;5015082;28;20230;-66
2022/08/14 09:13:52;;;;;;;10.68;7.85;;;26.40;99.90;;;;;;5013946;28;20194;-67
2022/08/14 09:16:24;;;;;;;8.57;7.75;;;26.70;99.90;;;;;;5014216;28;20218;-67
2022/08/14 09:18:50;;;;;;;9.73;8.27;;;26.80;99.90;;;;;;5014217;28;20196;-67
2022/08/14 09:21:17;;;;;;;9.15;7.82;;;27.00;99.90;;;;;;5013736;28;20167;-67
2022/08/14 09:23:44;;;;;;;10.48;7.50;;;27.10;99.90;;;;;;5014972;28;20163;-64
2022/08/14 09:26:10;;;;;;;8.25;7.10;;;27.20;99.90;;;;;;5014861;28;20164;-64
2022/08/14 09:28:37;;;;;;;7.53;6.63;;;27.40;99.90;;;;;;4996062;28;20319;-63
2022/08/14 09:31:04;;;;;;;8.48;7.68;;;27.50;99.90;;;;;;5014105;28;20652;-67
2022/08/14 09:33:57;;;;;;;8.63;6.97;;;27.70;99.90;;;;;;5014351;28;20206;-64
2022/08/14 09:36:42;;;;;;;8.73;6.97;;;27.90;99.90;;;;;;5014739;28;20156;-66
2022/08/14 09:39:30;;;;;;;9.52;7.32;;;28.00;99.90;;;;;;5014194;28;20562;-66
2022/08/14 09:42:21;;;;;;;6.55;5.68;;;28.00;99.90;;;;;;5014452;28;20191;-66
2022/08/14 09:45:02;;;;;;;8.30;7.30;;;27.90;99.90;;;;;;5013908;28;20164;-66
2022/08/14 09:47:45;;;;;;;8.05;7.07;;;27.90;99.90;;;;;;5013968;28;20505;-67
2022/08/14 09:50:28;;;;;;;8.27;6.72;;;28.00;99.90;;;;;;5013553;28;20207;-66
2022/08/14 09:52:56;;;;;;;7.85;6.70;;;28.00;99.90;;;;;;5014595;28;20239;-65
2022/08/14 09:55:23;;;;;;;8.40;7.38;;;28.10;99.90;;;;;;5014166;28;20175;-63
2022/08/14 09:57:52;;;;;;;7.50;6.70;;;28.20;99.90;;;;;;5013531;28;20191;-64
2022/08/14 10:00:21;;;;;;;7.72;6.25;;;28.40;99.90;;;;;;5013223;28;20191;-64
2022/08/14 10:02:53;;;;;;;7.35;6.50;;;28.50;99.90;;;;;;4995803;28;20625;-64
2022/08/14 10:05:30;;;;;;;8.35;6.72;;;28.50;99.90;;;;;;5030026;28;20176;-64
2022/08/14 10:07:56;;;;;;;7.35;6.63;;;28.50;99.90;;;;;;5017378;28;20179;-64
2022/08/14 10:10:34;;;;;;;8.18;7.25;;;28.50;99.90;;;;;;5017449;28;20190;-64
2022/08/14 10:13:02;;;;;;;9.48;7.38;;;28.60;99.90;;;;;;5017516;28;20156;-64
2022/08/14 10:15:30;;;;;;;8.40;7.35;;;28.70;99.90;;;;;;5016957;28;20164;-64
2022/08/14 10:18:14;;;;;;;7.63;6.82;;;28.70;99.90;;;;;;5017392;28;20168;-64
2022/08/14 10:21:00;;;;;;;7.75;6.95;;;28.70;99.90;;;;;;4999368;28;20227;-64
2022/08/14 10:23:41;;;;;;;8.93;6.90;;;28.70;99.90;;;;;;5017841;28;20617;-64
2022/08/14 10:26:08;;;;;;;8.25;7.43;;;28.80;99.90;;;;;;5017319;28;20210;-64
2022/08/14 10:28:48;;;;;;;7.50;6.70;;;28.80;99.90;;;;;;4999698;28;20180;-64
2022/08/14 10:31:33;;;;;;;8.98;7.88;;;28.90;99.90;;;;;;5017471;28;20167;-64
2022/08/14 10:34:11;;;;;;;9.57;7.20;;;28.80;99.90;;;;;;4999315;28;20199;-64
2022/08/14 10:36:47;;;;;;;7.82;7.03;;;29.00;99.90;;;;;;5016744;28;20184;-64
2022/08/14 10:39:22;;;;;;;7.80;6.78;;;28.90;99.90;;;;;;5016801;28;20191;-64
2022/08/14 10:41:58;;;;;;;7.90;7.20;;;29.00;99.90;;;;;;4999255;28;20237;-64
2022/08/14 10:44:37;;;;;;;7.63;6.80;;;29.20;99.90;;;;;;5016730;28;20167;-64
2022/08/14 10:47:09;;;;;;;7.78;6.53;;;29.30;99.90;;;;;;4999133;28;20530;-64
2022/08/14 10:49:48;;;;;;;7.93;6.78;;;29.40;99.90;;;;;;5017176;28;20196;-64
2022/08/14 10:52:22;;;;;;;7.97;6.97;;;29.40;99.90;;;;;;5017779;28;20571;-64
2022/08/14 10:54:50;;;;;;;8.02;7.22;;;29.50;99.90;;;;;;5017461;28;20528;-65
2022/08/14 10:57:29;;;;;;;7.75;7.03;;;29.60;99.90;;;;;;4999186;28;20191;-64
2022/08/14 10:59:59;;;;;;;7.57;6.78;;;29.60;99.90;;;;;;5016580;28;20242;-64
2022/08/14 11:02:31;;;;;;;7.07;6.38;;;29.60;99.90;;;;;;5016923;28;20183;-64
2022/08/14 11:05:14;;;;;;;8.65;6.88;;;29.50;99.90;;;;;;5016663;28;20184;-65
2022/08/14 11:07:54;;;;;;;7.53;6.72;;;29.50;99.90;;;;;;5016487;28;20671;-64
2022/08/14 11:10:23;;;;;;;8.02;6.43;;;29.50;99.90;;;;;;5016258;28;20203;-64
2022/08/14 11:12:52;;;;;;;8.05;7.20;;;29.50;99.90;;;;;;5016144;28;20172;-64
2022/08/14 11:15:21;;;;;;;7.82;6.82;;;29.50;99.90;;;;;;5015972;28;20203;-64
2022/08/14 11:17:49;;;;;;;9.13;6.97;;;29.40;99.90;;;;;;5015495;28;20178;-64
2022/08/14 11:20:17;;;;;;;7.65;6.85;;;29.30;99.90;;;;;;5016119;28;20223;-64
2022/08/14 11:22:44;;;;;;;8.10;7.30;;;29.20;99.90;;;;;;5016089;28;20180;-64
2022/08/14 11:25:13;;;;;;;7.28;6.57;;;29.20;99.90;;;;;;5016161;28;20207;-64
2022/08/14 11:27:45;;;;;;;7.43;6.63;;;29.40;99.90;;;;;;5016070;28;20176;-65
2022/08/14 11:30:15;;;;;;;7.20;6.50;;;29.70;99.90;;;;;;5015765;28;20236;-64
2022/08/14 11:32:47;;;;;;;8.77;6.93;;;30.00;99.90;;;;;;4999022;28;20176;-64
2022/08/14 11:35:21;;;;;;;7.70;6.90;;;30.40;99.90;;;;;;5015863;28;20184;-64
2022/08/14 11:37:57;;;;;;;8.95;6.80;;;30.60;99.90;;;;;;5016139;28;20183;-65
2022/08/14 11:40:25;;;;;;;7.20;6.50;;;30.90;99.90;;;;;;5015724;28;20274;-64
2022/08/14 11:42:54;;;;;;;7.32;6.45;;;31.10;99.90;;;;;;4998196;28;20547;-65
2022/08/14 11:45:24;;;;;;;7.78;6.97;;;31.40;99.90;;;;;;5015190;28;20229;-64
2022/08/14 11:47:53;;;;;;;8.55;6.63;;;31.50;99.90;;;;;;5015484;28;20183;-65
2022/08/14 11:50:23;;;;;;;7.30;6.60;;;31.70;99.90;;;;;;5015428;28;20188;-65
2022/08/14 11:52:51;;;;;;;8.10;7.30;;;31.90;99.90;;;;;;4997851;28;20175;-65
2022/08/14 11:55:17;;;;;;;7.68;6.53;;;31.90;99.90;;;;;;5015671;28;20203;-65
2022/08/14 11:57:44;;;;;;;6.70;6.00;;;31.70;99.90;;;;;;5016792;28;20645;-64
2022/08/14 12:00:14;;;;;;;8.55;6.20;;;31.60;99.90;;;;;;5015111;28;20190;-65
2022/08/14 12:02:55;;;;;;;7.70;6.80;;;31.60;99.90;;;;;;5016008;28;20510;-65
2022/08/14 12:05:38;;;;;;;6.65;5.93;;;31.30;99.90;;;;;;5015325;28;20246;-64
2022/08/14 12:08:08;;;;;;;6.95;6.25;;;31.00;99.90;;;;;;5015136;28;20183;-64
2022/08/14 12:10:36;;;;;;;7.53;6.32;;;30.60;99.90;;;;;;5030192;28;20246;-64
2022/08/14 12:13:17;;;;;;;7.40;6.45;;;30.20;99.90;;;;;;4997231;28;20187;-64
2022/08/14 12:15:45;;;;;;;6.70;6.00;;;29.90;99.90;;;;;;5014664;28;20176;-64
2022/08/14 12:18:11;;;;;;;9.18;6.97;;;29.70;99.90;;;;;;5015130;28;20156;-64
2022/08/14 12:20:41;;;;;;;7.25;6.55;;;29.50;99.90;;;;;;5014591;28;20199;-64
2022/08/14 12:23:23;;;;;;;6.65;5.88;;;29.40;99.90;;;;;;5014696;28;20539;-64
2022/08/14 12:25:49;;;;;;;9.13;6.75;;;29.20;99.90;;;;;;5014875;28;20509;-64
2022/08/14 12:28:15;;;;;;;6.38;5.45;;;29.10;99.90;;;;;;5014914;28;20704;-64
2022/08/14 12:30:43;;;;;;;7.00;6.00;;;29.10;99.90;;;;;;4996629;28;20568;-64
2022/08/14 12:33:28;;;;;;;6.47;5.88;;;29.10;99.90;;;;;;5014737;28;20525;-64
2022/08/14 12:35:57;;;;;;;6.38;5.60;;;29.20;99.90;;;;;;5014736;28;20156;-64
2022/08/14 12:38:37;;;;;;;6.93;6.22;;;29.20;99.90;;;;;;4996662;28;20184;-64
2022/08/14 12:41:12;;;;;;;6.80;6.13;;;29.30;99.90;;;;;;5014474;28;20176;-64
2022/08/14 12:43:50;;;;;;;6.65;6.03;;;29.40;99.90;;;;;;5014669;28;20494;-64
2022/08/14 12:46:27;;;;;;;6.57;5.88;;;29.40;99.90;;;;;;4996697;28;20183;-64
2022/08/14 12:48:53;;;;;;;6.72;5.78;;;29.40;99.90;;;;;;5014696;28;20596;-65
2022/08/14 12:51:21;;;;;;;7.68;6.47;;;29.30;99.90;;;;;;5029977;28;20231;-66
2022/08/14 12:53:48;;;;;;;7.45;6.47;;;29.20;99.90;;;;;;5015501;28;20211;-67
2022/08/14 12:56:19;;;;;;;6.53;5.88;;;29.20;99.90;;;;;;5015215;28;20195;-67
2022/08/14 12:58:56;;;;;;;6.70;5.93;;;29.50;99.90;;;;;;5014673;28;20199;-67
2022/08/14 13:01:26;;;;;;;6.93;5.97;;;30.20;99.90;;;;;;5014846;28;20179;-67
2022/08/14 13:04:15;;;;;;;6.75;5.88;;;31.00;99.90;;;;;;5014383;28;20171;-67
2022/08/14 13:06:44;;;;;;;6.68;5.10;;;31.80;99.90;;;;;;5014665;28;20298;-64